Time;durP1;ratioP1;P1;durP2;ratioP2;P2;SDS_P1;SDS_P2;PMS_P1;PMS_P2;Temp;Humidity;BMP_temperature;BMP_pressure;BME280_temperature;BME280_humidity;BME280_pressure;Samples;Min_cycle;Max_cycle;Signal;HPM_P1;HPM_P2
2022/10/09 00:00:46;;;;;;;5.00;4.50;;;22.30;41.80;;;;;;5015821;28;20309;-60
2022/10/09 00:03:13;;;;;;;5.20;4.80;;;22.20;41.70;;;;;;5004384;28;20327;-62
2022/10/09 00:05:39;;;;;;;5.53;5.00;;;22.30;41.70;;;;;;5005778;28;20459;-65
2022/10/09 00:08:05;;;;;;;4.80;4.40;;;22.20;41.60;;;;;;5001707;28;20468;-59
2022/10/09 00:10:30;;;;;;;5.23;4.73;;;22.20;41.70;;;;;;5011525;28;20233;-61
2022/10/09 00:12:56;;;;;;;5.50;5.07;;;22.20;41.70;;;;;;5006102;28;20226;-59
2022/10/09 00:15:22;;;;;;;5.30;4.90;;;22.20;41.70;;;;;;5001052;28;20246;-59
2022/10/09 00:17:47;;;;;;;5.63;5.10;;;22.20;41.70;;;;;;5012024;28;21914;-60
2022/10/09 00:20:13;;;;;;;5.57;5.13;;;22.20;41.70;;;;;;5010488;28;20227;-61
2022/10/09 00:22:39;;;;;;;5.13;4.77;;;22.20;41.70;;;;;;5005933;28;20214;-66
2022/10/09 00:25:05;;;;;;;5.43;4.87;;;22.20;41.10;;;;;;5006368;28;20253;-63
2022/10/09 00:27:31;;;;;;;5.83;5.33;;;22.20;41.70;;;;;;5007180;28;20306;-66
2022/10/09 00:29:56;;;;;;;4.70;4.40;;;22.20;41.60;;;;;;5012865;28;21000;-64
2022/10/09 00:32:22;;;;;;;5.73;5.20;;;22.20;41.70;;;;;;5010231;28;20792;-63
2022/10/09 00:34:48;;;;;;;5.10;4.77;;;22.20;41.70;;;;;;5012632;28;20249;-63
2022/10/09 00:37:13;;;;;;;4.50;4.10;;;22.20;41.70;;;;;;5010687;28;20243;-60
2022/10/09 00:39:38;;;;;;;5.00;4.70;;;22.20;41.70;;;;;;5004771;28;20227;-59
2022/10/09 00:42:04;;;;;;;4.63;4.30;;;22.20;41.60;;;;;;5011588;28;20265;-65
2022/10/09 00:44:50;;;;;;;5.30;4.90;;;22.20;41.70;;;;;;5008925;28;20748;-60
2022/10/09 00:47:32;;;;;;;6.20;5.60;;;22.20;41.70;;;;;;5001742;28;20872;-60
2022/10/09 00:50:20;;;;;;;4.50;4.20;;;22.20;41.70;;;;;;5002371;28;20487;-61
2022/10/09 00:52:49;;;;;;;4.57;4.27;;;22.20;41.70;;;;;;5009931;28;20440;-60
2022/10/09 00:55:14;;;;;;;5.40;4.90;;;22.20;41.70;;;;;;5015083;28;20494;-61
2022/10/09 00:57:41;;;;;;;4.70;4.23;;;22.20;41.70;;;;;;5005052;28;20483;-60
2022/10/09 01:00:10;;;;;;;5.10;4.70;;;22.20;41.70;;;;;;5013295;28;20227;-62
2022/10/09 01:02:36;;;;;;;4.23;3.93;;;22.20;41.70;;;;;;5004627;28;20818;-66
2022/10/09 01:05:02;;;;;;;5.57;4.43;;;22.20;42.60;;;;;;5009645;28;20460;-61
2022/10/09 01:07:30;;;;;;;4.57;4.27;;;22.20;41.70;;;;;;5007648;28;20223;-61
2022/10/09 01:10:28;;;;;;;4.20;3.90;;;22.20;41.70;;;;;;5010272;28;20473;-59
2022/10/09 01:13:25;;;;;;;4.93;4.50;;;22.20;41.70;;;;;;4950549;28;20464;-63
2022/10/09 01:15:58;;;;;;;4.30;4.00;;;22.20;41.80;;;;;;5006587;28;20460;-60
2022/10/09 01:18:48;;;;;;;4.47;4.07;;;22.20;41.70;;;;;;5009499;28;20468;-64
2022/10/09 01:21:40;;;;;;;3.83;3.53;;;22.20;41.70;;;;;;5010654;28;20490;-60
2022/10/09 01:24:31;;;;;;;3.73;3.53;;;22.20;41.70;;;;;;4973245;28;20540;-62
2022/10/09 01:27:14;;;;;;;4.40;4.00;;;22.20;41.70;;;;;;4991236;28;22107;-60
2022/10/09 01:29:47;;;;;;;4.47;4.17;;;22.20;41.70;;;;;;5004922;28;20875;-60
2022/10/09 01:32:18;;;;;;;4.03;3.80;;;22.20;41.80;;;;;;5005650;28;20899;-65
2022/10/09 01:34:45;;;;;;;4.40;4.00;;;22.20;41.70;;;;;;5008546;28;20530;-62
2022/10/09 01:37:13;;;;;;;4.50;4.20;;;22.20;41.80;;;;;;5011126;28;20565;-60
2022/10/09 01:39:40;;;;;;;4.17;3.87;;;22.20;41.70;;;;;;4997292;28;20475;-61
2022/10/09 01:42:07;;;;;;;4.47;4.17;;;22.20;41.70;;;;;;5012582;28;20463;-60
2022/10/09 01:44:33;;;;;;;4.47;3.67;;;22.20;41.80;;;;;;5000263;28;20457;-59
2022/10/09 01:46:59;;;;;;;4.13;3.93;;;22.20;41.70;;;;;;5011830;28;20511;-69
2022/10/09 01:49:27;;;;;;;3.97;3.63;;;22.20;41.70;;;;;;5008284;28;20452;-67
2022/10/09 01:52:09;;;;;;;4.20;3.90;;;22.20;41.70;;;;;;5007197;28;20471;-62
2022/10/09 01:55:13;;;;;;;4.07;3.87;;;22.20;41.70;;;;;;5007452;28;20479;-61
2022/10/09 01:58:00;;;;;;;4.63;4.33;;;22.20;41.70;;;;;;5005908;28;20529;-62
2022/10/09 02:00:29;;;;;;;3.77;3.53;;;22.20;41.70;;;;;;5011389;28;20487;-67
2022/10/09 02:02:56;;;;;;;3.40;3.20;;;22.20;41.70;;;;;;5007560;28;20467;-62
2022/10/09 02:05:26;;;;;;;3.80;3.60;;;22.20;41.80;;;;;;5012338;28;20510;-63
2022/10/09 02:07:53;;;;;;;4.53;4.13;;;22.20;41.70;;;;;;5000426;28;20557;-66
2022/10/09 02:10:20;;;;;;;4.30;4.00;;;22.20;41.80;;;;;;5002597;28;21203;-62
2022/10/09 02:12:51;;;;;;;4.27;3.97;;;22.20;41.80;;;;;;5011914;28;20463;-67
2022/10/09 02:15:17;;;;;;;3.93;3.73;;;22.20;41.70;;;;;;5004091;28;20509;-62
2022/10/09 02:17:46;;;;;;;3.67;3.47;;;22.20;41.70;;;;;;5003564;28;21178;-63
2022/10/09 02:20:19;;;;;;;4.43;4.00;;;22.20;41.70;;;;;;5008116;28;20309;-61
2022/10/09 02:22:45;;;;;;;3.50;3.30;;;22.20;41.70;;;;;;5007652;28;20466;-61
2022/10/09 02:25:11;;;;;;;3.57;3.37;;;22.20;41.80;;;;;;5010695;28;20475;-61
2022/10/09 02:27:37;;;;;;;5.40;3.70;;;22.20;41.70;;;;;;5006320;28;22153;-61
2022/10/09 02:30:06;;;;;;;3.90;3.70;;;22.20;41.70;;;;;;5013275;28;20997;-67
2022/10/09 02:32:31;;;;;;;3.63;3.40;;;22.20;41.70;;;;;;4998178;28;20255;-64
2022/10/09 02:34:57;;;;;;;3.50;3.20;;;22.20;41.70;;;;;;5006343;28;20576;-61
2022/10/09 02:37:23;;;;;;;3.93;3.60;;;22.20;41.70;;;;;;5011889;28;20244;-61
2022/10/09 02:39:49;;;;;;;4.00;3.80;;;22.20;41.70;;;;;;5004599;28;20227;-62
2022/10/09 02:42:14;;;;;;;3.47;3.27;;;22.20;41.70;;;;;;5004832;28;20981;-61
2022/10/09 02:44:40;;;;;;;3.60;3.40;;;22.20;41.70;;;;;;5006001;28;20634;-61
2022/10/09 02:47:05;;;;;;;3.83;3.53;;;22.20;41.70;;;;;;5011213;28;20222;-60
2022/10/09 02:49:31;;;;;;;4.13;3.70;;;22.20;41.70;;;;;;5010748;28;20257;-64
2022/10/09 02:51:56;;;;;;;3.73;3.43;;;22.20;41.70;;;;;;5015075;28;20273;-61
2022/10/09 02:54:22;;;;;;;3.40;3.20;;;22.20;41.70;;;;;;5010470;28;20281;-60
2022/10/09 02:56:47;;;;;;;3.60;3.40;;;22.20;41.70;;;;;;5006853;28;20235;-62
2022/10/09 02:59:13;;;;;;;3.50;3.30;;;22.20;41.70;;;;;;5011368;28;20270;-63
2022/10/09 03:01:38;;;;;;;3.80;3.60;;;22.20;41.70;;;;;;5013893;28;20232;-62
2022/10/09 03:04:04;;;;;;;4.13;3.83;;;22.20;41.70;;;;;;5013432;28;20762;-65
2022/10/09 03:06:30;;;;;;;3.57;3.37;;;22.20;41.70;;;;;;5011651;28;20226;-65
2022/10/09 03:08:56;;;;;;;3.57;3.37;;;22.20;41.80;;;;;;5015515;28;20263;-60
2022/10/09 03:11:23;;;;;;;3.90;3.60;;;22.20;41.70;;;;;;4989033;28;20980;-61
2022/10/09 03:13:49;;;;;;;3.63;3.33;;;22.20;41.70;;;;;;5013082;28;20227;-65
2022/10/09 03:16:20;;;;;;;3.60;3.40;;;22.20;41.70;;;;;;5013286;28;20448;-61
2022/10/09 03:18:47;;;;;;;3.43;3.23;;;22.20;41.70;;;;;;5003328;28;20452;-65
2022/10/09 03:21:15;;;;;;;3.93;3.63;;;22.20;41.70;;;;;;5008436;28;20463;-61
2022/10/09 03:23:41;;;;;;;3.30;3.10;;;22.20;41.80;;;;;;5011274;28;21245;-60
2022/10/09 03:26:10;;;;;;;4.23;3.93;;;22.20;41.70;;;;;;5018761;28;20551;-61
2022/10/09 03:28:37;;;;;;;3.50;3.30;;;22.20;41.80;;;;;;5010723;28;20223;-62
2022/10/09 03:31:03;;;;;;;3.57;3.27;;;22.20;41.80;;;;;;5016204;28;20994;-61
2022/10/09 03:33:29;;;;;;;3.50;3.30;;;22.20;41.70;;;;;;5014500;28;20491;-63
2022/10/09 03:35:55;;;;;;;3.77;3.57;;;22.20;41.70;;;;;;5012148;28;20635;-63
2022/10/09 03:38:20;;;;;;;3.77;3.57;;;22.20;42.40;;;;;;5013197;28;20245;-67
2022/10/09 03:40:46;;;;;;;3.97;3.67;;;22.20;41.60;;;;;;5008598;28;20231;-62
2022/10/09 03:43:11;;;;;;;3.50;3.30;;;22.20;41.70;;;;;;5007669;28;20211;-62
2022/10/09 03:45:41;;;;;;;3.30;3.10;;;22.20;41.60;;;;;;5003384;28;20238;-62
2022/10/09 03:48:09;;;;;;;3.60;3.10;;;22.20;41.60;;;;;;5012525;28;20219;-66
2022/10/09 03:50:37;;;;;;;3.27;3.00;;;22.20;41.70;;;;;;5007985;28;20481;-64
2022/10/09 03:53:04;;;;;;;3.30;3.10;;;22.20;41.60;;;;;;5018169;28;20463;-62
2022/10/09 03:55:29;;;;;;;3.70;3.50;;;22.20;41.60;;;;;;5009056;28;20494;-61
2022/10/09 03:57:55;;;;;;;3.17;2.97;;;22.20;41.60;;;;;;5015302;28;20974;-62
2022/10/09 04:00:21;;;;;;;3.57;3.27;;;22.20;41.60;;;;;;5010908;28;20218;-61
2022/10/09 04:02:46;;;;;;;3.33;3.13;;;22.20;41.60;;;;;;5007151;28;20399;-64
2022/10/09 04:05:12;;;;;;;3.13;2.93;;;22.20;41.60;;;;;;5015387;28;20815;-67
2022/10/09 04:07:37;;;;;;;3.30;3.10;;;22.20;41.60;;;;;;5009166;28;20219;-63
2022/10/09 04:10:03;;;;;;;3.50;3.30;;;22.10;41.50;;;;;;5002419;28;20243;-63
2022/10/09 04:12:29;;;;;;;2.93;2.73;;;22.10;41.50;;;;;;4994971;28;20669;-62
2022/10/09 04:14:54;;;;;;;2.80;2.70;;;22.20;41.60;;;;;;5000736;28;20467;-61
2022/10/09 04:17:20;;;;;;;3.73;3.53;;;22.10;41.60;;;;;;5009928;28;20239;-63
2022/10/09 04:19:45;;;;;;;3.50;3.30;;;22.10;41.50;;;;;;5008207;28;21979;-61
2022/10/09 04:22:11;;;;;;;3.20;3.00;;;22.10;41.50;;;;;;5013253;28;20691;-61
2022/10/09 04:24:37;;;;;;;3.90;3.27;;;22.10;41.60;;;;;;5012040;28;20230;-64
2022/10/09 04:27:02;;;;;;;3.73;3.53;;;22.10;41.50;;;;;;5012479;28;20226;-62
2022/10/09 04:29:28;;;;;;;3.33;3.13;;;22.10;41.50;;;;;;5006730;28;20249;-65
2022/10/09 04:31:53;;;;;;;3.60;3.40;;;22.10;41.40;;;;;;5009137;28;20211;-64
2022/10/09 04:34:19;;;;;;;3.93;3.73;;;22.10;41.50;;;;;;5014633;28;20305;-66
2022/10/09 04:36:44;;;;;;;3.50;3.20;;;22.10;41.50;;;;;;5010323;28;20919;-63
2022/10/09 04:39:10;;;;;;;3.13;2.93;;;22.10;41.50;;;;;;5016775;28;20223;-62
2022/10/09 04:41:35;;;;;;;3.70;3.40;;;22.20;42.30;;;;;;5013879;28;20218;-67
2022/10/09 04:44:01;;;;;;;3.70;3.40;;;22.10;41.50;;;;;;5008238;28;20222;-64
2022/10/09 04:46:27;;;;;;;3.13;2.90;;;22.10;41.50;;;;;;5009297;28;22752;-63
2022/10/09 04:48:53;;;;;;;3.33;3.13;;;22.10;41.50;;;;;;5002127;28;20459;-63
2022/10/09 04:51:18;;;;;;;3.80;3.57;;;22.10;41.50;;;;;;5006277;28;20260;-63
2022/10/09 04:53:44;;;;;;;3.43;3.23;;;22.10;41.60;;;;;;5004637;28;20254;-61
2022/10/09 04:56:16;;;;;;;3.20;3.00;;;22.10;41.50;;;;;;5017184;28;20235;-60
2022/10/09 04:58:42;;;;;;;3.80;3.50;;;22.10;41.50;;;;;;5007949;28;20778;-63
2022/10/09 05:01:11;;;;;;;3.73;3.53;;;22.20;41.60;;;;;;5007285;28;20460;-61
2022/10/09 05:03:36;;;;;;;3.73;3.53;;;22.20;41.50;;;;;;4997786;28;20479;-64
2022/10/09 05:06:05;;;;;;;3.17;2.90;;;22.10;41.40;;;;;;5009969;28;20459;-65
2022/10/09 05:08:31;;;;;;;3.33;3.13;;;22.10;41.40;;;;;;5001778;28;20228;-60
2022/10/09 05:11:05;;;;;;;3.03;2.83;;;22.10;41.40;;;;;;5011593;28;20716;-60
2022/10/09 05:13:33;;;;;;;3.50;3.30;;;22.20;41.50;;;;;;5007530;28;20503;-62
2022/10/09 05:16:04;;;;;;;3.30;3.10;;;22.10;41.40;;;;;;5013412;28;20971;-65
2022/10/09 05:18:29;;;;;;;3.60;3.40;;;22.10;41.40;;;;;;4998273;28;20472;-63
2022/10/09 05:20:55;;;;;;;3.07;2.87;;;22.20;41.50;;;;;;5006024;28;20872;-62
2022/10/09 05:23:20;;;;;;;3.63;3.33;;;22.20;41.50;;;;;;5014199;28;20320;-66
2022/10/09 05:26:03;;;;;;;3.13;2.93;;;22.20;41.50;;;;;;5012649;28;20214;-66
2022/10/09 05:28:29;;;;;;;3.37;3.07;;;22.20;41.40;;;;;;5006542;28;20259;-62
2022/10/09 05:30:54;;;;;;;3.47;3.27;;;22.20;41.50;;;;;;5005390;28;20464;-65
2022/10/09 05:33:20;;;;;;;3.33;3.13;;;22.20;42.20;;;;;;4996793;28;20315;-62
2022/10/09 05:35:54;;;;;;;2.90;2.70;;;22.20;41.40;;;;;;4994816;28;20222;-62
2022/10/09 05:38:21;;;;;;;3.10;2.90;;;22.20;41.40;;;;;;5014993;28;20238;-64
2022/10/09 05:40:54;;;;;;;3.23;3.03;;;22.20;42.20;;;;;;4997006;28;20452;-62
2022/10/09 05:43:23;;;;;;;3.30;3.10;;;22.20;41.40;;;;;;5007120;28;20566;-61
2022/10/09 05:45:48;;;;;;;3.00;2.80;;;22.20;41.40;;;;;;5010008;28;20456;-63
2022/10/09 05:48:14;;;;;;;3.43;3.13;;;22.20;41.40;;;;;;5011106;28;20464;-61
2022/10/09 05:50:40;;;;;;;3.07;2.87;;;22.20;41.30;;;;;;5004010;28;20333;-64
2022/10/09 05:53:05;;;;;;;3.00;2.80;;;22.20;41.20;;;;;;5010162;28;20272;-62
2022/10/09 05:55:31;;;;;;;3.07;2.87;;;22.20;41.20;;;;;;4996819;28;20237;-61
2022/10/09 05:57:56;;;;;;;3.10;2.90;;;22.20;41.20;;;;;;5001481;28;20266;-62
2022/10/09 06:00:22;;;;;;;3.47;3.27;;;22.20;41.30;;;;;;4998755;28;20301;-60
2022/10/09 06:02:47;;;;;;;2.90;2.70;;;22.20;41.30;;;;;;5003704;28;20955;-65
2022/10/09 06:05:13;;;;;;;2.60;2.50;;;22.20;41.20;;;;;;5007791;28;20702;-64
2022/10/09 06:07:38;;;;;;;3.07;2.87;;;22.10;41.20;;;;;;5008166;28;20226;-66
2022/10/09 06:10:04;;;;;;;3.10;2.90;;;22.20;41.40;;;;;;5009724;28;20254;-62
2022/10/09 06:12:30;;;;;;;2.87;2.67;;;22.20;41.30;;;;;;5008748;28;20744;-63
2022/10/09 06:14:55;;;;;;;2.73;2.53;;;22.20;41.30;;;;;;5001464;28;20226;-61
2022/10/09 06:17:21;;;;;;;3.03;2.83;;;22.20;41.30;;;;;;5013420;28;20238;-64
2022/10/09 06:19:46;;;;;;;2.87;2.77;;;22.20;41.10;;;;;;5005486;28;20219;-62
2022/10/09 06:22:12;;;;;;;3.07;2.87;;;22.20;41.20;;;;;;5000806;28;20227;-62
2022/10/09 06:24:37;;;;;;;3.10;2.90;;;22.20;41.20;;;;;;5016346;28;20237;-65
2022/10/09 06:27:03;;;;;;;2.73;2.63;;;22.20;41.20;;;;;;4996028;28;21416;-62
2022/10/09 06:29:29;;;;;;;3.17;2.87;;;22.10;41.10;;;;;;5000215;28;20309;-60
2022/10/09 06:31:55;;;;;;;3.23;3.03;;;22.20;41.20;;;;;;5003459;28;20223;-63
2022/10/09 06:34:20;;;;;;;3.20;3.00;;;22.20;41.20;;;;;;5005250;28;20467;-60
2022/10/09 06:36:46;;;;;;;2.70;2.50;;;22.20;41.10;;;;;;5006531;28;21176;-60
2022/10/09 06:39:12;;;;;;;3.47;3.00;;;22.20;41.20;;;;;;5016122;28;20230;-62
2022/10/09 06:41:37;;;;;;;3.50;3.30;;;22.20;41.10;;;;;;5003871;28;20702;-61
2022/10/09 06:44:05;;;;;;;2.73;2.60;;;22.20;41.10;;;;;;5000698;28;20685;-65
2022/10/09 06:46:37;;;;;;;2.73;2.53;;;22.20;41.10;;;;;;5013401;28;20261;-60
2022/10/09 06:49:04;;;;;;;2.70;2.50;;;22.10;41.10;;;;;;5007825;28;20469;-62
2022/10/09 06:51:31;;;;;;;3.07;2.87;;;22.20;41.10;;;;;;5008666;28;20455;-64
2022/10/09 06:53:59;;;;;;;2.77;2.67;;;22.20;41.10;;;;;;5016199;28;20459;-64
2022/10/09 06:56:27;;;;;;;2.63;2.50;;;22.20;41.20;;;;;;5012363;28;20494;-60
2022/10/09 06:58:53;;;;;;;3.20;2.90;;;22.20;41.10;;;;;;5009219;28;20487;-61
2022/10/09 07:01:25;;;;;;;3.10;2.90;;;22.20;41.10;;;;;;5013824;28;20447;-68
2022/10/09 07:03:57;;;;;;;3.00;2.80;;;22.20;41.10;;;;;;5012280;28;20949;-63
2022/10/09 07:06:28;;;;;;;2.70;2.50;;;22.20;41.10;;;;;;5011560;28;20456;-61
2022/10/09 07:09:00;;;;;;;3.07;2.87;;;22.20;41.10;;;;;;5011714;28;21019;-60
2022/10/09 07:11:32;;;;;;;3.00;2.80;;;22.20;41.90;;;;;;5013507;28;20971;-60
2022/10/09 07:13:59;;;;;;;2.67;2.47;;;22.20;41.10;;;;;;5008423;28;20482;-60
2022/10/09 07:16:30;;;;;;;2.47;2.37;;;22.20;41.10;;;;;;5010385;28;20570;-63
2022/10/09 07:18:56;;;;;;;3.33;3.13;;;22.20;41.20;;;;;;5011213;28;20573;-59
2022/10/09 07:21:23;;;;;;;2.90;2.80;;;22.20;41.10;;;;;;5011462;28;20525;-59
2022/10/09 07:23:49;;;;;;;4.93;2.80;;;22.20;41.10;;;;;;5008617;28;21915;-63
2022/10/09 07:26:17;;;;;;;2.97;2.70;;;22.20;41.10;;;;;;5013577;28;20478;-61
2022/10/09 07:28:44;;;;;;;8.63;2.90;;;22.20;41.20;;;;;;4984899;28;21059;-60
2022/10/09 07:31:10;;;;;;;2.53;2.33;;;22.20;41.10;;;;;;5012609;28;20468;-61
2022/10/09 07:33:36;;;;;;;2.67;2.53;;;22.20;41.20;;;;;;5014334;28;20468;-61
2022/10/09 07:36:03;;;;;;;3.57;3.03;;;22.20;41.10;;;;;;5001557;28;20455;-64
2022/10/09 07:38:29;;;;;;;3.33;3.07;;;22.20;41.10;;;;;;5015021;28;20234;-62
2022/10/09 07:41:03;;;;;;;3.10;2.90;;;22.20;41.10;;;;;;5008932;28;20829;-60
2022/10/09 07:43:29;;;;;;;3.00;2.80;;;22.20;41.10;;;;;;5003274;28;20643;-63
2022/10/09 07:46:01;;;;;;;3.10;2.90;;;22.20;41.10;;;;;;5019363;28;20447;-66
2022/10/09 07:48:27;;;;;;;3.10;2.90;;;22.20;41.10;;;;;;5003369;28;21170;-60
2022/10/09 07:50:53;;;;;;;3.13;2.93;;;22.20;41.10;;;;;;5012418;28;20458;-60
2022/10/09 07:53:19;;;;;;;3.37;3.00;;;22.20;41.10;;;;;;5014511;28;20228;-60
2022/10/09 07:55:46;;;;;;;2.97;2.77;;;22.20;41.10;;;;;;5011405;28;20456;-61
2022/10/09 07:58:16;;;;;;;3.70;3.50;;;22.20;41.10;;;;;;5016593;28;20776;-62
2022/10/09 08:00:42;;;;;;;3.20;2.90;;;22.20;41.10;;;;;;5013012;28;20481;-65
2022/10/09 08:03:09;;;;;;;3.40;3.20;;;22.20;41.10;;;;;;5003223;28;20472;-62
2022/10/09 08:05:34;;;;;;;3.17;2.97;;;22.20;41.10;;;;;;5014452;28;20482;-61
2022/10/09 08:08:00;;;;;;;3.50;2.80;;;22.20;41.10;;;;;;5004061;28;20461;-61
2022/10/09 08:10:29;;;;;;;3.13;2.93;;;22.20;41.10;;;;;;5015399;28;20223;-60
2022/10/09 08:12:54;;;;;;;3.23;3.07;;;22.20;41.10;;;;;;5009429;28;20226;-62
2022/10/09 08:15:20;;;;;;;3.40;3.20;;;22.20;41.10;;;;;;5001468;28;21867;-60
2022/10/09 08:17:45;;;;;;;2.93;2.73;;;22.20;41.10;;;;;;5012482;28;20230;-64
2022/10/09 08:20:11;;;;;;;2.97;2.67;;;22.20;41.10;;;;;;5010401;28;20227;-62
2022/10/09 08:22:36;;;;;;;3.00;2.80;;;22.20;41.10;;;;;;5011489;28;20231;-60
2022/10/09 08:25:02;;;;;;;2.60;2.33;;;22.20;41.10;;;;;;5010969;28;20227;-63
2022/10/09 08:27:28;;;;;;;3.17;2.97;;;22.20;41.20;;;;;;5008145;28;20223;-62
2022/10/09 08:29:53;;;;;;;2.90;2.70;;;22.20;41.10;;;;;;5017716;28;20482;-61
2022/10/09 08:32:19;;;;;;;3.57;3.27;;;22.20;41.10;;;;;;5010628;28;20614;-64
2022/10/09 08:34:46;;;;;;;3.03;2.83;;;22.20;41.10;;;;;;5011047;28;20306;-61
2022/10/09 08:37:11;;;;;;;3.43;3.03;;;22.20;41.10;;;;;;5013883;28;20280;-59
2022/10/09 08:39:37;;;;;;;3.03;2.37;;;22.20;41.10;;;;;;5006625;28;20494;-60
2022/10/09 08:42:04;;;;;;;5.47;2.57;;;22.20;41.10;;;;;;4999438;28;20679;-64
2022/10/09 08:44:36;;;;;;;2.70;2.50;;;22.20;41.10;;;;;;5003617;28;20246;-62
2022/10/09 08:47:20;;;;;;;8.83;2.93;;;22.20;41.10;;;;;;4999405;28;20468;-65
2022/10/09 08:49:53;;;;;;;3.67;2.33;;;22.20;41.10;;;;;;5006469;28;20976;-65
2022/10/09 08:52:45;;;;;;;2.53;2.20;;;22.20;41.10;;;;;;5006294;28;20476;-60
2022/10/09 08:55:26;;;;;;;2.83;2.63;;;22.20;41.10;;;;;;5009845;28;21053;-63
2022/10/09 08:57:55;;;;;;;2.77;2.57;;;22.30;41.20;;;;;;5004376;28;20609;-62
2022/10/09 09:00:23;;;;;;;19.60;3.13;;;22.30;41.20;;;;;;5009296;28;20475;-61
2022/10/09 09:03:15;;;;;;;2.73;2.53;;;22.30;41.20;;;;;;5004453;28;20449;-62
2022/10/09 09:05:56;;;;;;;2.47;2.37;;;22.30;41.20;;;;;;5002734;28;20534;-66
2022/10/09 09:08:36;;;;;;;2.43;2.23;;;22.30;41.20;;;;;;5001266;28;20558;-61
2022/10/09 09:11:38;;;;;;;2.13;2.03;;;22.30;41.30;;;;;;5000886;28;20471;-60
2022/10/09 09:14:27;;;;;;;2.73;2.30;;;22.30;41.20;;;;;;5005219;28;21297;-60
2022/10/09 09:17:02;;;;;;;2.20;2.10;;;22.30;41.20;;;;;;4997176;28;21061;-62
2022/10/09 09:19:30;;;;;;;2.37;2.17;;;22.30;41.20;;;;;;5006717;28;20475;-65
2022/10/09 09:21:57;;;;;;;3.13;2.60;;;22.30;41.20;;;;;;4999310;28;22497;-64
2022/10/09 09:24:53;;;;;;;2.87;2.13;;;22.30;41.20;;;;;;5005679;28;20479;-65
2022/10/09 09:27:26;;;;;;;2.10;1.87;;;22.40;41.30;;;;;;4997060;28;20464;-61
2022/10/09 09:29:54;;;;;;;2.20;1.90;;;22.40;41.30;;;;;;5004601;28;20451;-63
2022/10/09 09:32:22;;;;;;;2.37;2.17;;;22.40;41.30;;;;;;5011757;28;20464;-65
2022/10/09 09:34:49;;;;;;;5.00;2.03;;;22.40;41.30;;;;;;5012125;28;20468;-64
2022/10/09 09:37:15;;;;;;;2.30;2.20;;;22.40;41.30;;;;;;5002178;28;26148;-65
2022/10/09 09:39:41;;;;;;;2.70;2.10;;;22.40;41.30;;;;;;4995855;28;21269;-62
2022/10/09 09:42:12;;;;;;;2.03;1.90;;;22.40;41.30;;;;;;5005828;28;20499;-61
2022/10/09 09:44:44;;;;;;;2.20;2.10;;;22.40;41.30;;;;;;4999742;28;20223;-65
2022/10/09 09:47:20;;;;;;;1.80;1.70;;;22.40;41.30;;;;;;4997143;28;20460;-60
2022/10/09 09:50:03;;;;;;;2.10;1.90;;;22.40;41.30;;;;;;5000845;28;20898;-62
2022/10/09 09:52:33;;;;;;;2.03;1.83;;;22.40;41.40;;;;;;5003986;28;20544;-65
2022/10/09 09:54:59;;;;;;;2.13;2.03;;;22.40;41.30;;;;;;5004589;28;20540;-66
2022/10/09 09:57:41;;;;;;;2.10;1.90;;;22.40;41.40;;;;;;5007788;28;20480;-64
2022/10/09 10:00:27;;;;;;;1.60;1.50;;;22.40;41.30;;;;;;5002461;28;20258;-62
2022/10/09 10:03:12;;;;;;;1.90;1.80;;;22.40;41.30;;;;;;5004513;28;20599;-60
2022/10/09 10:05:39;;;;;;;2.27;1.93;;;22.50;41.40;;;;;;5001814;28;21044;-61
2022/10/09 10:08:28;;;;;;;1.77;1.67;;;22.40;41.30;;;;;;4995012;28;20465;-61
2022/10/09 10:10:56;;;;;;;1.90;1.80;;;22.40;41.30;;;;;;4998686;28;20473;-63
2022/10/09 10:13:47;;;;;;;2.20;1.57;;;22.40;41.40;;;;;;5003176;28;20547;-62
2022/10/09 10:16:25;;;;;;;3.60;2.13;;;22.40;41.30;;;;;;4992774;28;20460;-63
2022/10/09 10:18:53;;;;;;;1.97;1.77;;;22.50;42.20;;;;;;5003928;28;21041;-65
2022/10/09 10:21:20;;;;;;;2.00;1.63;;;22.50;41.50;;;;;;5003346;28;20452;-62
2022/10/09 10:23:53;;;;;;;1.80;1.70;;;22.50;41.50;;;;;;5008405;28;20459;-62
2022/10/09 10:26:46;;;;;;;1.90;1.80;;;22.50;41.50;;;;;;5008769;28;21089;-63
2022/10/09 10:29:23;;;;;;;1.90;1.80;;;22.50;41.40;;;;;;5006024;28;20479;-59
2022/10/09 10:32:01;;;;;;;1.40;1.30;;;22.50;41.40;;;;;;5008555;28;20943;-65
2022/10/09 10:34:48;;;;;;;1.50;1.40;;;22.50;41.40;;;;;;5006392;28;20466;-61
2022/10/09 10:37:14;;;;;;;1.70;1.60;;;22.50;41.50;;;;;;4999251;28;20484;-62
2022/10/09 10:39:49;;;;;;;1.70;1.60;;;22.50;41.50;;;;;;5004513;28;20474;-63
2022/10/09 10:42:27;;;;;;;1.93;1.80;;;22.50;41.40;;;;;;5005738;28;21069;-60
2022/10/09 10:45:27;;;;;;;1.80;1.70;;;22.50;41.40;;;;;;4993110;28;20451;-60
2022/10/09 10:47:57;;;;;;;1.73;1.63;;;22.50;41.50;;;;;;4955101;28;20464;-60
2022/10/09 10:50:29;;;;;;;1.53;1.43;;;22.50;41.50;;;;;;5007109;28;20515;-60
2022/10/09 10:53:16;;;;;;;3.00;1.40;;;22.50;41.60;;;;;;4999113;28;20928;-66
2022/10/09 10:55:53;;;;;;;1.70;1.60;;;22.50;41.60;;;;;;5005444;28;21003;-62
2022/10/09 10:58:43;;;;;;;1.70;1.60;;;22.50;41.60;;;;;;5005988;28;20472;-65
2022/10/09 11:01:28;;;;;;;1.93;1.63;;;22.50;41.50;;;;;;4997114;28;20814;-61
2022/10/09 11:04:09;;;;;;;1.60;1.50;;;22.50;41.60;;;;;;4998487;28;20461;-63
2022/10/09 11:06:40;;;;;;;2.60;1.67;;;22.50;41.60;;;;;;5009225;28;20470;-64
2022/10/09 11:09:14;;;;;;;1.67;1.57;;;22.50;41.70;;;;;;5002955;28;20538;-62
2022/10/09 11:12:11;;;;;;;1.70;1.60;;;22.50;41.60;;;;;;5010120;28;20463;-63
2022/10/09 11:14:46;;;;;;;2.20;1.50;;;22.50;41.50;;;;;;4981866;28;21162;-60
2022/10/09 11:17:21;;;;;;;1.60;1.50;;;22.50;41.60;;;;;;4999499;28;20545;-61
2022/10/09 11:19:56;;;;;;;1.73;1.63;;;22.50;41.50;;;;;;5004229;28;20550;-62
2022/10/09 11:23:04;;;;;;;1.77;1.67;;;22.60;41.50;;;;;;4999937;28;20504;-60
2022/10/09 11:25:48;;;;;;;2.03;1.60;;;22.60;41.50;;;;;;4962774;28;20836;-62
2022/10/09 11:28:38;;;;;;;1.80;1.70;;;22.50;41.40;;;;;;5009315;28;20471;-60
2022/10/09 11:31:15;;;;;;;1.67;1.57;;;22.60;41.50;;;;;;5010865;28;20456;-65
2022/10/09 11:33:49;;;;;;;1.60;1.50;;;22.50;41.40;;;;;;5009119;28;20472;-61
2022/10/09 11:36:40;;;;;;;1.57;1.47;;;22.50;41.50;;;;;;5004685;28;20464;-61
2022/10/09 11:39:14;;;;;;;1.63;1.53;;;22.50;41.40;;;;;;4995173;28;20585;-59
2022/10/09 11:41:44;;;;;;;1.77;1.67;;;22.50;41.40;;;;;;5004929;28;20467;-59
2022/10/09 11:44:30;;;;;;;1.63;1.53;;;22.50;41.40;;;;;;5006477;28;20460;-64
2022/10/09 11:47:03;;;;;;;1.60;1.50;;;22.50;41.40;;;;;;4998624;28;20476;-64
2022/10/09 11:49:51;;;;;;;1.83;1.73;;;22.50;41.40;;;;;;4993339;28;20460;-60
2022/10/09 11:52:46;;;;;;;1.37;1.27;;;22.50;41.40;;;;;;4987707;28;20470;-60
2022/10/09 11:55:27;;;;;;;1.53;1.43;;;22.50;41.50;;;;;;4996469;28;20472;-64
2022/10/09 11:57:53;;;;;;;1.53;1.43;;;22.50;41.50;;;;;;5004421;28;20475;-63
2022/10/09 12:00:30;;;;;;;1.80;1.70;;;22.50;41.40;;;;;;5008484;28;20552;-61
2022/10/09 12:03:02;;;;;;;2.60;1.60;;;22.50;41.40;;;;;;5010536;28;20462;-64
2022/10/09 12:05:37;;;;;;;2.13;1.40;;;22.50;41.40;;;;;;5012612;28;20475;-59
2022/10/09 12:08:13;;;;;;;2.00;1.90;;;22.50;41.40;;;;;;5011535;28;20591;-60
2022/10/09 12:10:43;;;;;;;1.60;1.50;;;22.50;41.40;;;;;;4999030;28;21533;-59
2022/10/09 12:13:28;;;;;;;1.50;1.40;;;22.50;41.40;;;;;;5007424;28;20567;-61
2022/10/09 12:15:56;;;;;;;1.70;1.60;;;22.50;41.40;;;;;;5000436;28;20534;-65
2022/10/09 12:18:27;;;;;;;1.80;1.70;;;22.50;41.40;;;;;;5001094;28;20457;-60
2022/10/09 12:20:54;;;;;;;1.80;1.70;;;22.60;41.50;;;;;;5009633;28;20478;-60
2022/10/09 12:23:28;;;;;;;2.87;1.70;;;22.50;41.40;;;;;;5003968;28;21001;-64
2022/10/09 12:25:55;;;;;;;1.80;1.70;;;22.60;41.50;;;;;;5004106;28;20535;-61
2022/10/09 12:28:32;;;;;;;1.50;1.40;;;22.50;41.40;;;;;;5011124;28;21078;-60
2022/10/09 12:31:02;;;;;;;1.60;1.50;;;22.50;41.40;;;;;;5004228;28;20474;-61
2022/10/09 12:33:36;;;;;;;2.43;1.70;;;22.60;41.50;;;;;;5003507;28;20465;-60
2022/10/09 12:36:13;;;;;;;1.43;1.30;;;22.50;41.40;;;;;;5002534;28;20471;-61
2022/10/09 12:38:39;;;;;;;2.00;1.90;;;22.50;41.40;;;;;;5007103;28;21714;-62
2022/10/09 12:41:12;;;;;;;1.70;1.60;;;22.50;41.40;;;;;;5001371;28;21074;-59
2022/10/09 12:43:43;;;;;;;1.50;1.40;;;22.60;41.50;;;;;;4975610;28;20817;-61
2022/10/09 12:46:09;;;;;;;1.40;1.30;;;22.60;41.50;;;;;;5001659;28;20557;-60
2022/10/09 12:48:42;;;;;;;1.70;1.60;;;22.50;41.40;;;;;;5006880;28;20458;-62
2022/10/09 12:51:22;;;;;;;1.97;1.30;;;22.60;41.80;;;;;;5008601;28;20226;-60
2022/10/09 12:53:49;;;;;;;1.60;1.50;;;22.50;41.40;;;;;;5009661;28;20471;-59
2022/10/09 12:56:29;;;;;;;1.57;1.40;;;22.60;41.50;;;;;;5001656;28;20460;-63
2022/10/09 12:58:57;;;;;;;1.50;1.40;;;22.50;41.40;;;;;;5004785;28;20489;-60
2022/10/09 13:01:23;;;;;;;1.30;1.20;;;22.50;41.50;;;;;;5005856;28;20926;-63
2022/10/09 13:03:55;;;;;;;2.00;1.90;;;22.50;41.40;;;;;;5007882;28;20468;-66
2022/10/09 13:06:25;;;;;;;1.30;1.20;;;22.50;41.40;;;;;;5007240;28;20503;-59